createdAt,value
2022-08-05T00:00:51.605Z,32.29
2022-08-05T00:01:53.190Z,32.28
2022-08-05T00:02:54.824Z,32.25
2022-08-05T00:03:56.735Z,32.23
2022-08-05T00:04:58.913Z,32.19
2022-08-05T00:06:05.165Z,32.16
2022-08-05T00:07:59.389Z,32.13
2022-08-05T00:08:43.909Z,32.11
2022-08-05T00:09:49.507Z,32.11
2022-08-05T00:10:51.400Z,32.12
2022-08-05T00:11:59.655Z,32.12
2022-08-05T00:13:01.400Z,32.10
2022-08-05T00:14:12.908Z,32.10
2022-08-05T00:15:56.050Z,32.09
2022-08-05T00:16:52.476Z,32.08
2022-08-05T00:17:55.508Z,32.07
2022-08-05T00:18:57.224Z,32.04
2022-08-05T00:20:02.759Z,32.05
2022-08-05T00:21:05.188Z,32.06
2022-08-05T00:22:11.052Z,32.06
2022-08-05T00:23:13.314Z,32.04
2022-08-05T00:24:16.137Z,32.04
2022-08-05T00:25:20.859Z,32.02
2022-08-05T00:26:22.569Z,32.01
2022-08-05T00:27:35.786Z,31.99
2022-08-05T00:28:37.932Z,31.97
2022-08-05T00:29:41.225Z,31.96
2022-08-05T00:30:44.144Z,31.98
2022-08-05T00:32:10.618Z,31.97
2022-08-05T00:33:07.248Z,31.97
2022-08-05T00:34:56.929Z,31.97
2022-08-05T00:35:38.835Z,31.97
2022-08-05T00:37:09.766Z,31.96
2022-08-05T00:38:13.648Z,31.95
2022-08-05T00:39:16.469Z,31.93
2022-08-05T00:40:28.201Z,31.92
2022-08-05T00:41:51.491Z,31.94
2022-08-05T00:42:52.427Z,31.93
2022-08-05T00:43:53.908Z,31.91
2022-08-05T00:44:55.652Z,31.91
2022-08-05T00:45:57.697Z,31.91
2022-08-05T00:47:01.925Z,31.91
2022-08-05T00:48:06.517Z,31.91
2022-08-05T00:49:08.592Z,31.91
2022-08-05T00:50:15.609Z,31.90
2022-08-05T00:51:51.580Z,31.90
2022-08-05T00:52:39.144Z,31.90
2022-08-05T00:54:00.032Z,31.88
2022-08-05T00:55:02.282Z,31.88
2022-08-05T00:56:05.550Z,31.88
2022-08-05T00:57:09.495Z,31.86
2022-08-05T00:58:11.556Z,31.87
2022-08-05T00:59:13.123Z,31.86
2022-08-05T01:00:16.884Z,31.86
2022-08-05T01:01:24.754Z,31.84
2022-08-05T01:02:40.314Z,31.84
2022-08-05T01:03:41.846Z,31.83
2022-08-05T01:04:43.331Z,31.83
2022-08-05T01:05:45.256Z,31.82
2022-08-05T01:06:48.764Z,31.82
2022-08-05T01:08:30.362Z,31.80
2022-08-05T01:09:12.352Z,31.80
2022-08-05T01:10:14.118Z,31.80
2022-08-05T01:11:36.906Z,31.79
2022-08-05T01:12:39.036Z,31.79
2022-08-05T01:14:08.848Z,31.76
2022-08-05T01:15:18.169Z,31.75
2022-08-05T01:16:32.192Z,31.75
2022-08-05T01:17:40.299Z,31.75
2022-08-05T01:18:42.658Z,31.73
2022-08-05T01:20:00.702Z,31.72
2022-08-05T01:21:12.790Z,31.70
2022-08-05T01:22:30.593Z,31.69
2022-08-05T01:23:34.919Z,31.67
2022-08-05T01:24:39.656Z,31.66
2022-08-05T01:25:50.281Z,31.64
2022-08-05T01:27:19.297Z,31.64
2022-08-05T01:28:23.271Z,31.60
2022-08-05T01:29:27.359Z,31.60
2022-08-05T01:30:34.121Z,31.61
2022-08-05T01:31:44.893Z,31.59
2022-08-05T01:32:46.844Z,31.59
2022-08-05T01:33:59.497Z,31.58
2022-08-05T01:35:02.312Z,31.57
2022-08-05T01:36:06.701Z,31.57
2022-08-05T01:37:36.698Z,31.56
2022-08-05T01:38:49.620Z,31.55
2022-08-05T01:39:51.648Z,31.52
2022-08-05T01:40:57.208Z,31.52
2022-08-05T01:41:58.762Z,31.52
2022-08-05T01:43:00.943Z,31.50
2022-08-05T01:44:09.923Z,31.48
2022-08-05T01:45:13.415Z,31.48
2022-08-05T01:46:42.850Z,31.46
2022-08-05T01:47:43.415Z,31.46
2022-08-05T01:48:45.968Z,31.43
2022-08-05T01:50:02.094Z,31.42
2022-08-05T01:51:12.096Z,31.43
2022-08-05T01:52:17.989Z,31.40
2022-08-05T01:53:54.527Z,31.41
2022-08-05T01:54:46.267Z,31.39
2022-08-05T01:55:47.963Z,31.38
2022-08-05T01:58:10.211Z,31.37
2022-08-05T01:58:15.942Z,31.34
2022-08-05T01:59:33.891Z,31.32
2022-08-05T02:00:37.394Z,31.30
2022-08-05T02:01:40.082Z,31.28
2022-08-05T02:02:46.499Z,31.26
2022-08-05T02:03:56.517Z,31.24
2022-08-05T02:05:03.087Z,31.23
2022-08-05T02:06:33.462Z,31.21
2022-08-05T02:07:30.208Z,31.19
2022-08-05T02:08:33.296Z,31.18
2022-08-05T02:09:35.337Z,31.19
2022-08-05T02:10:42.193Z,31.18
2022-08-05T02:12:04.902Z,31.17
2022-08-05T02:13:13.060Z,31.14
2022-08-05T02:14:21.415Z,31.12
2022-08-05T02:15:33.292Z,31.11
2022-08-05T02:17:02.436Z,31.10
2022-08-05T02:18:28.318Z,31.09
2022-08-05T02:19:34.594Z,31.09
2022-08-05T02:20:58.945Z,31.09
2022-08-05T02:22:09.079Z,31.08
2022-08-05T02:23:21.258Z,31.06
2022-08-05T02:24:24.220Z,31.03
2022-08-05T02:25:33.456Z,31.01
2022-08-05T02:26:54.694Z,30.98
2022-08-05T02:28:08.910Z,30.97
2022-08-05T02:29:21.538Z,30.93
2022-08-05T02:30:26.955Z,30.93
2022-08-05T02:31:34.859Z,30.91
2022-08-05T02:32:36.879Z,30.90
2022-08-05T02:33:42.414Z,30.87
2022-08-05T02:34:43.913Z,30.86
2022-08-05T02:36:00.592Z,30.84
2022-08-05T02:37:04.337Z,30.85
2022-08-05T02:38:06.051Z,30.82
2022-08-05T02:39:11.186Z,30.83
2022-08-05T02:40:13.305Z,30.82
2022-08-05T02:41:17.819Z,30.81
2022-08-05T02:42:25.823Z,30.82
2022-08-05T02:43:29.287Z,30.82
2022-08-05T02:44:31.087Z,30.82
2022-08-05T02:45:51.459Z,30.81
2022-08-05T02:47:00.439Z,30.81
2022-08-05T02:48:12.152Z,30.81
2022-08-05T02:49:14.534Z,30.80
2022-08-05T02:50:18.085Z,30.81
2022-08-05T02:51:19.768Z,30.82
2022-08-05T02:52:30.917Z,30.82
2022-08-05T02:53:39.191Z,30.80
2022-08-05T02:54:42.728Z,30.78
2022-08-05T02:55:59.561Z,30.77
2022-08-05T02:57:01.966Z,30.71
2022-08-05T02:58:09.763Z,30.71
2022-08-05T02:59:14.338Z,30.70
2022-08-05T03:00:16.481Z,30.68
2022-08-05T03:01:19.700Z,30.68
2022-08-05T03:02:22.898Z,30.66
2022-08-05T03:03:24.492Z,30.65
2022-08-05T03:04:26.575Z,30.63
2022-08-05T03:06:53.999Z,30.61
2022-08-05T03:06:54.001Z,30.55
2022-08-05T03:08:08.674Z,30.54
2022-08-05T03:09:15.774Z,30.50
2022-08-05T03:10:24.363Z,30.47
2022-08-05T03:11:54.715Z,30.40
2022-08-05T03:12:49.462Z,30.31
2022-08-05T03:14:03.438Z,30.28
2022-08-05T03:15:06.872Z,30.27
2022-08-05T03:16:09.020Z,30.27
2022-08-05T03:17:10.757Z,30.25
2022-08-05T03:18:12.400Z,30.22
2022-08-05T03:19:33.093Z,30.21
2022-08-05T03:20:36.193Z,30.20
2022-08-05T03:21:41.384Z,30.20
2022-08-05T03:22:44.010Z,30.17
2022-08-05T03:23:51.745Z,30.17
2022-08-05T03:24:53.274Z,30.16
2022-08-05T03:26:04.613Z,30.15
2022-08-05T03:27:16.573Z,30.14
2022-08-05T03:28:19.779Z,30.12
2022-08-05T03:29:21.412Z,30.13
2022-08-05T03:30:33.404Z,30.11
2022-08-05T03:31:55.587Z,30.07
2022-08-05T03:32:56.891Z,30.05
2022-08-05T03:33:58.473Z,30.04
2022-08-05T03:35:01.601Z,30.02
2022-08-05T03:36:06.664Z,30.02
2022-08-05T03:37:13.664Z,29.99
2022-08-05T03:38:15.875Z,29.96
2022-08-05T03:39:20.189Z,29.95
2022-08-05T03:40:32.083Z,29.91
2022-08-05T03:41:38.762Z,29.90
2022-08-05T03:42:52.496Z,29.88
2022-08-05T03:44:08.598Z,29.85
2022-08-05T03:45:21.439Z,29.81
2022-08-05T03:46:23.911Z,29.77
2022-08-05T03:47:35.429Z,29.73
2022-08-05T03:48:37.457Z,29.71
2022-08-05T03:49:51.484Z,29.68
2022-08-05T03:52:37.866Z,29.66
2022-08-05T03:52:50.492Z,29.61
2022-08-05T03:55:52.518Z,29.57
2022-08-05T03:56:06.147Z,29.55
2022-08-05T03:56:46.226Z,29.51
2022-08-05T03:57:48.285Z,29.48
2022-08-05T03:58:51.138Z,29.44
2022-08-05T04:00:03.924Z,29.43
2022-08-05T04:01:13.762Z,29.40
2022-08-05T04:02:17.600Z,29.37
2022-08-05T04:03:38.125Z,29.34
2022-08-05T04:04:39.792Z,29.32
2022-08-05T04:05:46.458Z,29.28
2022-08-05T04:06:51.152Z,29.25
2022-08-05T04:07:58.653Z,29.23
2022-08-05T04:09:00.520Z,29.19
2022-08-05T04:10:03.199Z,29.18
2022-08-05T04:11:05.179Z,29.16
2022-08-05T04:12:23.762Z,29.15
2022-08-05T04:13:27.847Z,29.14
2022-08-05T04:14:48.131Z,29.11
2022-08-05T04:16:03.362Z,29.09
2022-08-05T04:17:06.415Z,29.08
2022-08-05T04:18:09.537Z,29.06
2022-08-05T04:19:12.786Z,29.04
2022-08-05T04:20:22.125Z,29.02
2022-08-05T04:22:09.746Z,29.00
2022-08-05T04:22:46.868Z,29.00
2022-08-05T04:24:05.659Z,29.00
2022-08-05T04:25:08.706Z,28.98
2022-08-05T04:26:13.575Z,28.95
2022-08-05T04:27:15.474Z,28.93
2022-08-05T04:28:17.423Z,28.93
2022-08-05T04:29:18.947Z,28.93
2022-08-05T04:30:21.340Z,28.91
2022-08-05T04:31:22.872Z,28.91
2022-08-05T04:32:31.235Z,28.92
2022-08-05T04:33:54.604Z,28.91
2022-08-05T04:34:57.493Z,28.91
2022-08-05T04:36:11.403Z,28.88
2022-08-05T04:37:20.742Z,28.87
2022-08-05T04:38:39.938Z,28.85
2022-08-05T04:39:42.026Z,28.85
2022-08-05T04:40:44.483Z,28.83
2022-08-05T04:41:52.500Z,28.82
2022-08-05T04:42:54.051Z,28.82
2022-08-05T04:43:55.545Z,28.80
2022-08-05T04:44:57.101Z,28.80
2022-08-05T04:46:04.092Z,28.76
2022-08-05T04:47:08.939Z,28.75
2022-08-05T04:48:18.493Z,28.74
2022-08-05T04:49:38.124Z,28.72
2022-08-05T04:51:02.537Z,28.72
2022-08-05T04:52:11.398Z,28.71
2022-08-05T04:53:13.476Z,28.71
2022-08-05T04:54:15.623Z,28.69
2022-08-05T04:55:17.196Z,28.67
2022-08-05T04:56:37.390Z,28.66
2022-08-05T04:57:39.057Z,28.66
2022-08-05T04:58:49.194Z,28.62
2022-08-05T04:59:50.674Z,28.63
2022-08-05T05:00:52.178Z,28.63
2022-08-05T05:02:35.634Z,28.64
2022-08-05T05:03:20.298Z,28.65
2022-08-05T05:04:21.994Z,28.63
2022-08-05T05:05:28.933Z,28.66
2022-08-05T05:06:40.724Z,28.66
2022-08-05T05:07:55.216Z,28.67
2022-08-05T05:08:57.863Z,28.66
2022-08-05T05:10:02.235Z,28.65
2022-08-05T05:11:04.539Z,28.66
2022-08-05T05:12:07.198Z,28.67
2022-08-05T05:13:12.741Z,28.68
2022-08-05T05:14:16.145Z,28.69
2022-08-05T05:15:56.369Z,28.68
2022-08-05T05:16:39.431Z,28.70
2022-08-05T05:17:55.797Z,28.72
2022-08-05T05:19:18.796Z,28.73
2022-08-05T05:20:23.861Z,28.73
2022-08-05T05:21:30.381Z,28.75
2022-08-05T05:22:34.998Z,28.76
2022-08-05T05:24:03.721Z,28.76
2022-08-05T05:25:17.023Z,28.75
2022-08-05T05:26:18.935Z,28.78
2022-08-05T05:27:20.414Z,28.78
2022-08-05T05:28:22.940Z,28.78
2022-08-05T05:29:40.809Z,28.79
2022-08-05T05:30:49.763Z,28.79
2022-08-05T05:31:51.675Z,28.81
2022-08-05T05:32:54.551Z,28.81
2022-08-05T05:33:59.236Z,28.83
2022-08-05T05:35:03.923Z,28.83
2022-08-05T05:36:07.658Z,28.86
2022-08-05T05:37:09.161Z,28.86
2022-08-05T05:38:14.196Z,28.88
2022-08-05T05:39:15.930Z,28.88
2022-08-05T05:40:21.229Z,28.90
2022-08-05T05:41:40.538Z,28.90
2022-08-05T05:42:43.450Z,28.91
2022-08-05T05:43:56.745Z,28.92
2022-08-05T05:45:00.251Z,28.94
2022-08-05T05:46:05.162Z,28.94
2022-08-05T05:47:13.319Z,28.97
2022-08-05T05:48:27.559Z,28.99
2022-08-05T05:49:29.420Z,28.99
2022-08-05T05:50:31.056Z,29.00
2022-08-05T05:51:50.342Z,29.02
2022-08-05T05:52:52.336Z,29.03
2022-08-05T05:53:58.564Z,29.05
2022-08-05T05:55:01.816Z,29.05
2022-08-05T05:56:09.446Z,29.07
2022-08-05T05:57:24.201Z,29.08
2022-08-05T05:58:31.731Z,29.10
2022-08-05T05:59:33.971Z,29.11
2022-08-05T06:00:41.936Z,29.10
2022-08-05T06:01:57.035Z,29.11
2022-08-05T06:02:58.940Z,29.11
2022-08-05T06:04:03.557Z,29.13
2022-08-05T06:05:10.500Z,29.13
2022-08-05T06:06:18.338Z,29.13
2022-08-05T06:07:22.484Z,29.13
2022-08-05T06:08:31.507Z,29.14
2022-08-05T06:09:50.181Z,29.15
2022-08-05T06:10:55.798Z,29.15
2022-08-05T06:12:01.768Z,29.17
2022-08-05T06:13:05.003Z,29.18
2022-08-05T06:14:07.527Z,29.18
2022-08-05T06:15:12.350Z,29.19
2022-08-05T06:16:28.395Z,29.20
2022-08-05T06:17:53.136Z,29.21
2022-08-05T06:18:55.078Z,29.22
2022-08-05T06:19:59.527Z,29.20
2022-08-05T06:21:01.496Z,29.20
2022-08-05T06:22:03.482Z,29.20
2022-08-05T06:23:05.019Z,29.21
2022-08-05T06:24:07.806Z,29.23
2022-08-05T06:25:24.385Z,29.25
2022-08-05T06:26:37.290Z,29.27
2022-08-05T06:28:12.442Z,29.29
2022-08-05T06:29:03.447Z,29.30
2022-08-05T06:30:17.809Z,29.33
2022-08-05T06:31:22.579Z,29.35
2022-08-05T06:32:33.708Z,29.34
2022-08-05T06:34:07.858Z,29.25
2022-08-05T06:34:57.840Z,29.31
2022-08-05T06:36:05.646Z,29.27
2022-08-05T06:37:11.025Z,29.27
2022-08-05T06:38:13.924Z,29.29
2022-08-05T06:39:15.518Z,29.27
2022-08-05T06:40:17.880Z,29.28
2022-08-05T06:41:22.167Z,29.25
2022-08-05T06:42:24.076Z,29.23
2022-08-05T06:43:57.957Z,29.11
2022-08-05T06:44:49.293Z,29.02
2022-08-05T06:46:04.189Z,29.05
2022-08-05T06:47:10.324Z,29.08
2022-08-05T06:48:47.300Z,29.08
2022-08-05T06:50:01.185Z,29.04
2022-08-05T06:51:09.530Z,28.99
2022-08-05T06:52:36.897Z,28.87
2022-08-05T06:53:33.444Z,28.76
2022-08-05T06:54:40.947Z,28.63
2022-08-05T06:55:42.449Z,28.58
2022-08-05T06:56:55.163Z,28.53
2022-08-05T06:58:20.411Z,28.48
2022-08-05T06:59:30.795Z,28.42
2022-08-05T07:00:41.124Z,28.42
2022-08-05T07:01:42.848Z,28.44
2022-08-05T07:02:47.713Z,28.43
2022-08-05T07:03:55.342Z,28.35
2022-08-05T07:04:56.873Z,28.29
2022-08-05T07:05:59.689Z,28.29
2022-08-05T07:07:01.195Z,28.31
2022-08-05T07:08:02.823Z,28.29
2022-08-05T07:09:05.703Z,28.26
2022-08-05T07:10:07.632Z,28.25
2022-08-05T07:11:15.102Z,28.15
2022-08-05T07:12:36.025Z,27.97
2022-08-05T07:13:59.713Z,27.79
2022-08-05T07:15:34.211Z,27.57
2022-08-05T07:18:00.620Z,27.49
2022-08-05T07:18:17.686Z,27.33
2022-08-05T07:20:23.049Z,27.26
2022-08-05T07:20:50.564Z,27.12
2022-08-05T07:22:00.492Z,26.99
2022-08-05T07:23:02.769Z,27.07
2022-08-05T07:24:09.194Z,27.10
2022-08-05T07:25:55.682Z,27.08
2022-08-05T07:26:34.533Z,27.10
2022-08-05T07:27:58.206Z,27.05
2022-08-05T07:28:57.599Z,26.81
2022-08-05T07:30:24.297Z,26.77
2022-08-05T07:31:41.066Z,26.76
2022-08-05T07:32:44.334Z,26.73
2022-08-05T07:33:52.480Z,26.71
2022-08-05T07:34:57.989Z,26.74
2022-08-05T07:36:19.699Z,26.79
2022-08-05T07:37:21.801Z,26.83
2022-08-05T07:38:32.037Z,26.87
2022-08-05T07:40:04.290Z,26.90
2022-08-05T07:41:00.271Z,26.94
2022-08-05T07:42:08.002Z,26.97
2022-08-05T07:43:20.510Z,27.03
2022-08-05T07:44:22.608Z,27.03
2022-08-05T07:45:56.616Z,27.01
2022-08-05T07:46:48.299Z,26.95
2022-08-05T07:47:50.735Z,26.94
2022-08-05T07:49:03.350Z,26.97
2022-08-05T07:50:06.982Z,27.04
2022-08-05T07:51:23.092Z,27.04
2022-08-05T07:52:26.433Z,27.10
2022-08-05T07:53:36.818Z,27.15
2022-08-05T07:54:49.535Z,27.17
2022-08-05T07:56:06.153Z,27.20
2022-08-05T07:57:17.720Z,27.11
2022-08-05T07:58:57.447Z,27.09
2022-08-05T07:59:55.653Z,27.09
2022-08-05T08:00:57.229Z,27.13
2022-08-05T08:01:58.790Z,27.15
2022-08-05T08:03:13.609Z,27.16
2022-08-05T08:04:17.357Z,27.20
2022-08-05T08:05:39.423Z,27.23
2022-08-05T08:06:41.343Z,27.27
2022-08-05T08:07:58.936Z,27.29
2022-08-05T08:09:00.919Z,27.30
2022-08-05T08:10:02.594Z,27.31
2022-08-05T08:11:04.126Z,27.30
2022-08-05T08:12:29.687Z,27.31
2022-08-05T08:13:32.112Z,27.27
2022-08-05T08:14:46.833Z,27.25
2022-08-05T08:16:34.668Z,27.26
2022-08-05T08:17:15.791Z,27.26
2022-08-05T08:18:20.759Z,27.24
2022-08-05T08:20:10.116Z,27.25
2022-08-05T08:21:02.962Z,27.26
2022-08-05T08:22:05.576Z,27.24
2022-08-05T08:23:11.503Z,27.17
2022-08-05T08:24:51.061Z,27.11
2022-08-05T08:25:59.945Z,26.98
2022-08-05T08:27:06.944Z,26.92
2022-08-05T08:28:11.344Z,26.86
2022-08-05T08:30:04.280Z,26.86
2022-08-05T08:30:47.476Z,26.91
2022-08-05T08:31:50.042Z,26.93
2022-08-05T08:32:51.628Z,26.94
2022-08-05T08:33:55.075Z,26.97
2022-08-05T08:34:57.700Z,27.03
2022-08-05T08:36:18.442Z,27.06
2022-08-05T08:37:21.500Z,27.12
2022-08-05T08:38:35.544Z,27.16
2022-08-05T08:39:38.170Z,27.20
2022-08-05T08:40:51.757Z,27.24
2022-08-05T08:41:59.555Z,27.27
2022-08-05T08:44:57.882Z,27.32
2022-08-05T08:45:22.762Z,27.37
2022-08-05T08:45:46.167Z,27.44
2022-08-05T08:46:48.447Z,27.46
2022-08-05T08:48:10.469Z,27.49
2022-08-05T08:50:12.880Z,27.51
2022-08-05T08:51:22.519Z,27.53
2022-08-05T08:52:18.574Z,27.56
2022-08-05T08:53:20.082Z,27.57
2022-08-05T08:54:21.670Z,27.59
2022-08-05T08:56:02.976Z,27.60
2022-08-05T08:56:50.620Z,27.61
2022-08-05T08:57:58.441Z,27.64
2022-08-05T08:59:00.614Z,27.65
2022-08-05T09:00:02.199Z,27.66
2022-08-05T09:01:06.331Z,27.67
2022-08-05T09:02:12.913Z,27.68
2022-08-05T09:03:16.120Z,27.66
2022-08-05T09:04:20.543Z,27.65
2022-08-05T09:05:38.494Z,27.65
2022-08-05T09:06:44.387Z,27.66
2022-08-05T09:07:57.521Z,27.67
2022-08-05T09:09:00.508Z,27.68
2022-08-05T09:10:03.457Z,27.67
2022-08-05T09:11:07.292Z,27.69
2022-08-05T09:12:27.235Z,27.72
2022-08-05T09:13:31.910Z,27.75
2022-08-05T09:14:56.648Z,27.78
2022-08-05T09:16:01.475Z,27.81
2022-08-05T09:17:04.369Z,27.83
2022-08-05T09:18:09.832Z,27.87
2022-08-05T09:19:15.057Z,27.89
2022-08-05T09:20:36.675Z,27.91
2022-08-05T09:22:22.290Z,27.94
2022-08-05T09:23:05.573Z,28.00
2022-08-05T09:24:12.830Z,28.04
2022-08-05T09:25:24.285Z,28.07
2022-08-05T09:26:38.932Z,28.11
2022-08-05T09:28:05.465Z,28.15
2022-08-05T09:29:07.257Z,28.21
2022-08-05T09:30:16.463Z,28.25
2022-08-05T09:32:38.827Z,28.28
2022-08-05T09:32:42.965Z,28.33
2022-08-05T09:33:51.984Z,28.35
2022-08-05T09:34:55.429Z,28.39
2022-08-05T09:36:11.555Z,28.42
2022-08-05T09:37:18.399Z,28.47
2022-08-05T09:38:40.583Z,28.52
2022-08-05T09:39:46.042Z,28.58
2022-08-05T09:41:12.417Z,28.61
2022-08-05T09:42:33.667Z,28.69
2022-08-05T09:43:44.339Z,28.75
2022-08-05T09:44:51.598Z,28.80
2022-08-05T09:46:06.569Z,28.82
2022-08-05T09:47:17.082Z,28.87
2022-08-05T09:48:28.452Z,28.93
2022-08-05T09:49:54.426Z,28.96
2022-08-05T09:50:53.439Z,29.01
2022-08-05T09:51:54.978Z,29.06
2022-08-05T09:52:57.861Z,29.10
2022-08-05T09:54:00.460Z,29.13
2022-08-05T09:55:55.360Z,29.16
2022-08-05T09:56:29.233Z,29.20
2022-08-05T09:57:39.524Z,29.23
2022-08-05T09:58:41.936Z,29.26
2022-08-05T09:59:43.834Z,29.30
2022-08-05T10:00:52.680Z,29.33
2022-08-05T10:01:58.355Z,29.35
2022-08-05T10:03:00.187Z,29.41
2022-08-05T10:04:10.439Z,29.45
2022-08-05T10:05:13.308Z,29.47
2022-08-05T10:06:15.917Z,29.50
2022-08-05T10:07:20.964Z,29.54
2022-08-05T10:08:39.190Z,29.57
2022-08-05T10:10:04.064Z,29.62
2022-08-05T10:11:15.729Z,29.69
2022-08-05T10:12:30.643Z,29.64
2022-08-05T10:13:45.841Z,29.77
2022-08-05T10:14:49.582Z,29.82
2022-08-05T10:15:58.208Z,29.86
2022-08-05T10:17:14.150Z,29.91
2022-08-05T10:18:33.839Z,29.96
2022-08-05T10:20:02.917Z,30.00
2022-08-05T10:20:58.792Z,30.04
2022-08-05T10:22:08.053Z,30.09
2022-08-05T10:23:34.181Z,30.13
2022-08-05T10:24:39.822Z,30.18
2022-08-05T10:25:41.435Z,30.23
2022-08-05T10:26:51.170Z,30.26
2022-08-05T10:28:12.960Z,30.28
2022-08-05T10:29:23.549Z,30.32
2022-08-05T10:32:47.374Z,30.36
2022-08-05T10:32:53.996Z,30.39
2022-08-05T10:33:14.925Z,30.42
2022-08-05T10:34:16.965Z,30.44
2022-08-05T10:35:18.676Z,30.48
2022-08-05T10:36:26.148Z,30.50
2022-08-05T10:37:40.424Z,30.51
2022-08-05T10:38:46.980Z,30.50
2022-08-05T10:40:03.039Z,30.51
2022-08-05T10:41:23.249Z,30.44
2022-08-05T10:42:32.346Z,30.41
2022-08-05T10:43:36.570Z,30.42
2022-08-05T10:44:38.987Z,30.45
2022-08-05T10:45:43.502Z,30.46
2022-08-05T10:46:45.258Z,30.46
2022-08-05T10:47:47.121Z,30.46
2022-08-05T10:49:10.445Z,30.48
2022-08-05T10:50:20.754Z,30.50
2022-08-05T10:51:59.906Z,30.52
2022-08-05T10:53:02.452Z,30.53
2022-08-05T10:54:28.484Z,30.54
2022-08-05T10:55:27.293Z,30.54
2022-08-05T10:56:29.860Z,30.54
2022-08-05T10:57:33.661Z,30.56
2022-08-05T10:58:48.629Z,30.57
2022-08-05T11:00:09.989Z,30.59
2022-08-05T11:01:28.236Z,30.60
2022-08-05T11:02:39.766Z,30.59
2022-08-05T11:04:04.776Z,30.60
2022-08-05T11:05:10.695Z,30.60
2022-08-05T11:06:15.069Z,30.62
2022-08-05T11:07:19.072Z,30.63
2022-08-05T11:08:37.293Z,30.65
2022-08-05T11:09:46.583Z,30.64
2022-08-05T11:10:50.318Z,30.63
2022-08-05T11:12:03.179Z,30.63
2022-08-05T11:13:05.097Z,30.62
2022-08-05T11:14:06.715Z,30.61
2022-08-05T11:15:19.842Z,30.62
2022-08-05T11:16:23.110Z,30.64
2022-08-05T11:18:09.538Z,30.66
2022-08-05T11:20:16.949Z,30.69
2022-08-05T11:20:48.400Z,30.71
2022-08-05T11:21:49.955Z,30.76
2022-08-05T11:22:53.933Z,30.79
2022-08-05T11:24:14.744Z,30.81
2022-08-05T11:26:05.850Z,30.82
2022-08-05T11:26:49.474Z,30.84
2022-08-05T11:28:00.688Z,30.86
2022-08-05T11:29:11.472Z,30.88
2022-08-05T11:30:15.067Z,30.88
2022-08-05T11:31:19.565Z,30.92
2022-08-05T11:32:38.374Z,30.94
2022-08-05T11:33:48.480Z,30.95
2022-08-05T11:34:54.158Z,30.99
2022-08-05T11:36:07.422Z,30.97
2022-08-05T11:38:26.148Z,31.03
2022-08-05T11:38:51.734Z,31.10
2022-08-05T11:40:00.798Z,31.15
2022-08-05T11:41:54.793Z,31.18
2022-08-05T11:42:37.777Z,31.25
2022-08-05T11:44:06.574Z,31.28
2022-08-05T11:45:06.151Z,31.22
2022-08-05T11:46:36.746Z,31.36
2022-08-05T11:47:49.907Z,31.38
2022-08-05T11:48:52.248Z,31.43
2022-08-05T11:49:57.383Z,31.46
2022-08-05T11:50:59.579Z,31.48
2022-08-05T11:52:01.130Z,31.51
2022-08-05T11:53:04.307Z,31.55
2022-08-05T11:54:11.771Z,31.58
2022-08-05T11:55:15.594Z,31.59
2022-08-05T11:56:17.148Z,31.62
2022-08-05T11:57:26.016Z,31.64
2022-08-05T11:58:31.428Z,31.66
2022-08-05T11:59:49.936Z,31.67
2022-08-05T12:01:00.503Z,31.69
2022-08-05T12:02:03.022Z,31.71
2022-08-05T12:03:28.479Z,31.74
2022-08-05T12:04:41.663Z,31.77
2022-08-05T12:05:44.570Z,31.79
2022-08-05T12:06:48.851Z,31.83
2022-08-05T12:08:09.529Z,31.86
2022-08-05T12:09:20.085Z,31.89
2022-08-05T12:10:21.771Z,31.92
2022-08-05T12:11:23.252Z,31.95
2022-08-05T12:12:25.819Z,31.98
2022-08-05T12:13:47.556Z,32.01
2022-08-05T12:14:48.921Z,32.03
2022-08-05T12:15:50.477Z,32.05
2022-08-05T12:16:57.427Z,32.05
2022-08-05T12:18:03.860Z,32.03
2022-08-05T12:20:26.940Z,31.94
2022-08-05T12:20:38.420Z,31.90
2022-08-05T12:21:44.298Z,31.90
2022-08-05T12:22:47.443Z,31.92
2022-08-05T12:24:05.121Z,31.90
2022-08-05T12:25:07.482Z,31.80
2022-08-05T12:26:09.273Z,31.83
2022-08-05T12:27:21.332Z,31.80
2022-08-05T12:28:30.884Z,31.79
2022-08-05T12:29:38.695Z,31.80
2022-08-05T12:30:46.132Z,31.82
2022-08-05T12:31:53.502Z,31.84
2022-08-05T12:32:58.663Z,31.86
2022-08-05T12:34:09.163Z,31.89
2022-08-05T12:35:22.007Z,31.89
2022-08-05T12:36:23.536Z,31.97
2022-08-05T12:37:30.240Z,31.99
2022-08-05T12:38:33.531Z,32.03
2022-08-05T12:39:41.034Z,32.05
2022-08-05T12:40:44.174Z,32.04
2022-08-05T12:41:45.860Z,32.05
2022-08-05T12:42:47.414Z,32.06
2022-08-05T12:43:54.415Z,32.06
2022-08-05T12:45:02.188Z,32.07
2022-08-05T12:46:03.678Z,32.06
2022-08-05T12:47:12.447Z,32.03
2022-08-05T12:48:27.417Z,32.00
2022-08-05T12:50:04.339Z,31.96
2022-08-05T12:51:21.564Z,31.95
2022-08-05T12:52:28.346Z,31.92
2022-08-05T12:53:37.064Z,31.92
2022-08-05T12:54:40.379Z,31.95
2022-08-05T12:55:42.439Z,31.95
2022-08-05T12:56:47.120Z,31.98
2022-08-05T12:58:51.534Z,31.98
2022-08-05T12:59:21.070Z,32.00
2022-08-05T13:02:01.961Z,31.96
2022-08-05T13:02:07.494Z,31.95
2022-08-05T13:03:12.312Z,31.95
2022-08-05T13:04:20.889Z,31.94
2022-08-05T13:05:23.339Z,31.95
2022-08-05T13:06:25.982Z,31.92
2022-08-05T13:07:55.973Z,31.97
2022-08-05T13:08:52.444Z,31.97
2022-08-05T13:09:57.031Z,31.99
2022-08-05T13:11:02.726Z,31.98
2022-08-05T13:12:13.204Z,31.97
2022-08-05T13:14:05.714Z,31.99
2022-08-05T13:14:42.720Z,32.00
2022-08-05T13:15:50.839Z,32.00
2022-08-05T13:16:52.768Z,32.02
2022-08-05T13:17:59.365Z,32.03
2022-08-05T13:19:01.074Z,32.06
2022-08-05T13:20:05.279Z,32.08
2022-08-05T13:21:08.141Z,32.09
2022-08-05T13:22:12.247Z,32.11
2022-08-05T13:23:13.815Z,32.13
2022-08-05T13:24:27.546Z,32.15
2022-08-05T13:25:59.170Z,32.16
2022-08-05T13:27:02.082Z,32.15
2022-08-05T13:28:05.039Z,32.18
2022-08-05T13:29:06.587Z,32.18
2022-08-05T13:30:33.535Z,32.19
2022-08-05T13:31:34.034Z,32.20
2022-08-05T13:32:54.045Z,32.22
2022-08-05T13:34:21.230Z,32.24
2022-08-05T13:35:26.216Z,32.24
2022-08-05T13:36:34.328Z,32.28
2022-08-05T13:37:35.919Z,32.28
2022-08-05T13:38:42.400Z,32.26
2022-08-05T13:40:13.776Z,32.29
2022-08-05T13:41:06.345Z,32.31
2022-08-05T13:42:14.596Z,32.33
2022-08-05T13:43:22.034Z,32.37
2022-08-05T13:44:24.099Z,32.38
2022-08-05T13:45:33.954Z,32.38
2022-08-05T13:48:09.222Z,32.40
2022-08-05T13:49:23.320Z,32.43
2022-08-05T13:50:24.959Z,32.35
2022-08-05T13:51:28.771Z,32.47
2022-08-05T13:52:30.287Z,32.48
2022-08-05T13:53:34.601Z,32.49
2022-08-05T13:54:53.245Z,32.49
2022-08-05T13:55:58.753Z,32.50
2022-08-05T13:57:03.262Z,32.53
2022-08-05T13:58:07.832Z,32.53
2022-08-05T13:59:20.080Z,32.52
2022-08-05T14:00:26.903Z,32.48
2022-08-05T14:01:44.301Z,32.44
2022-08-05T14:02:48.223Z,32.43
2022-08-05T14:04:09.895Z,32.42
2022-08-05T14:05:12.029Z,32.46
2022-08-05T14:06:26.792Z,32.44
2022-08-05T14:07:59.476Z,32.45
2022-08-05T14:08:53.464Z,32.48
2022-08-05T14:09:56.007Z,32.49
2022-08-05T14:10:59.793Z,32.49
2022-08-05T14:12:18.223Z,32.50
2022-08-05T14:13:32.282Z,32.49
2022-08-05T14:14:36.015Z,32.49
2022-08-05T14:16:09.217Z,32.48
2022-08-05T14:16:59.938Z,32.47
2022-08-05T14:18:02.472Z,32.48
2022-08-05T14:19:05.396Z,32.45
2022-08-05T14:20:07.773Z,32.43
2022-08-05T14:22:06.733Z,32.44
2022-08-05T14:22:34.526Z,32.41
2022-08-05T14:23:37.296Z,32.40
2022-08-05T14:24:39.895Z,32.41
2022-08-05T14:25:45.069Z,32.40
2022-08-05T14:27:02.054Z,32.38
2022-08-05T14:28:15.885Z,32.38
2022-08-05T14:29:24.386Z,32.37
2022-08-05T14:30:27.979Z,32.35
2022-08-05T14:32:02.558Z,32.31
2022-08-05T14:32:51.671Z,32.26
2022-08-05T14:33:59.661Z,32.21
2022-08-05T14:35:01.960Z,32.16
2022-08-05T14:36:03.835Z,32.14
2022-08-05T14:37:05.394Z,32.11
2022-08-05T14:38:06.908Z,32.07
2022-08-05T14:39:28.513Z,32.03
2022-08-05T14:40:30.755Z,32.00
2022-08-05T14:41:32.572Z,31.94
2022-08-05T14:42:34.708Z,31.92
2022-08-05T14:44:02.221Z,31.90
2022-08-05T14:45:01.076Z,31.84
2022-08-05T14:46:02.655Z,31.78
2022-08-05T14:47:04.493Z,31.75
2022-08-05T14:48:08.858Z,31.72
2022-08-05T14:49:10.556Z,31.70
2022-08-05T14:50:18.179Z,31.67
2022-08-05T14:51:20.451Z,31.65
2022-08-05T14:52:50.126Z,31.60
2022-08-05T14:53:44.423Z,31.57